sensor_id;sensor_type;location;lat;lon;timestamp;pressure;altitude;pressure_sealevel;temperature;humidity
23953;BME280;12163;49.316;6.092;2022-07-05T00:01:17;99793.50;;;19.98;46.64
23953;BME280;12163;49.316;6.092;2022-07-05T00:03:44;99796.56;;;19.96;46.81
23953;BME280;12163;49.316;6.092;2022-07-05T00:06:10;99790.19;;;19.92;46.79
23953;BME280;12163;49.316;6.092;2022-07-05T00:08:38;99795.56;;;19.89;46.79
23953;BME280;12163;49.316;6.092;2022-07-05T00:11:04;99794.41;;;19.90;46.75
23953;BME280;12163;49.316;6.092;2022-07-05T00:13:31;99800.22;;;19.88;46.94
23953;BME280;12163;49.316;6.092;2022-07-05T00:15:58;99795.44;;;19.85;46.78
23953;BME280;12163;49.316;6.092;2022-07-05T00:18:25;99796.91;;;19.83;46.92
23953;BME280;12163;49.316;6.092;2022-07-05T00:20:51;99803.19;;;19.83;47.52
23953;BME280;12163;49.316;6.092;2022-07-05T00:23:18;99797.59;;;19.80;47.25
23953;BME280;12163;49.316;6.092;2022-07-05T00:25:44;99805.22;;;19.74;47.79
23953;BME280;12163;49.316;6.092;2022-07-05T00:28:11;99806.56;;;19.68;48.15
23953;BME280;12163;49.316;6.092;2022-07-05T00:30:40;99797.66;;;19.59;48.06
23953;BME280;12163;49.316;6.092;2022-07-05T00:33:06;99796.28;;;19.53;48.08
23953;BME280;12163;49.316;6.092;2022-07-05T00:35:33;99801.94;;;19.48;48.55
23953;BME280;12163;49.316;6.092;2022-07-05T00:38:00;99798.97;;;19.41;49.04
23953;BME280;12163;49.316;6.092;2022-07-05T00:40:26;99795.16;;;19.34;49.05
23953;BME280;12163;49.316;6.092;2022-07-05T00:42:53;99796.84;;;19.26;49.73
23953;BME280;12163;49.316;6.092;2022-07-05T00:45:20;99793.03;;;19.19;49.48
23953;BME280;12163;49.316;6.092;2022-07-05T00:47:47;99801.44;;;19.14;50.12
23953;BME280;12163;49.316;6.092;2022-07-05T00:50:14;99790.56;;;19.05;50.16
23953;BME280;12163;49.316;6.092;2022-07-05T00:52:40;99797.38;;;18.99;50.42
23953;BME280;12163;49.316;6.092;2022-07-05T00:55:07;99795.97;;;18.93;50.58
23953;BME280;12163;49.316;6.092;2022-07-05T00:57:34;99798.09;;;18.88;51.18
23953;BME280;12163;49.316;6.092;2022-07-05T01:00:01;99800.22;;;18.82;50.62
23953;BME280;12163;49.316;6.092;2022-07-05T01:02:28;99800.44;;;18.77;51.31
23953;BME280;12163;49.316;6.092;2022-07-05T01:04:54;99804.50;;;18.72;51.24
23953;BME280;12163;49.316;6.092;2022-07-05T01:07:22;99807.44;;;18.67;51.66
23953;BME280;12163;49.316;6.092;2022-07-05T01:09:50;99800.53;;;18.61;52.09
23953;BME280;12163;49.316;6.092;2022-07-05T01:12:17;99803.47;;;18.56;52.03
23953;BME280;12163;49.316;6.092;2022-07-05T01:14:44;99812.34;;;18.53;52.28
23953;BME280;12163;49.316;6.092;2022-07-05T01:17:12;99810.13;;;18.46;52.42
23953;BME280;12163;49.316;6.092;2022-07-05T01:19:39;99808.72;;;18.40;52.18
23953;BME280;12163;49.316;6.092;2022-07-05T01:22:12;99816.28;;;18.35;52.91
23953;BME280;12163;49.316;6.092;2022-07-05T01:24:41;99812.16;;;18.29;52.97
23953;BME280;12163;49.316;6.092;2022-07-05T01:27:09;99815.03;;;18.24;52.93
23953;BME280;12163;49.316;6.092;2022-07-05T01:29:36;99817.16;;;18.18;53.09
23953;BME280;12163;49.316;6.092;2022-07-05T01:32:02;99816.06;;;18.11;53.73
23953;BME280;12163;49.316;6.092;2022-07-05T01:34:29;99824.91;;;18.08;53.99
23953;BME280;12163;49.316;6.092;2022-07-05T01:36:56;99814.81;;;18.00;53.93
23953;BME280;12163;49.316;6.092;2022-07-05T01:39:22;99820.44;;;17.95;54.08
23953;BME280;12163;49.316;6.092;2022-07-05T01:41:49;99819.03;;;17.89;54.48
23953;BME280;12163;49.316;6.092;2022-07-05T01:44:16;99820.34;;;17.83;54.68
23953;BME280;12163;49.316;6.092;2022-07-05T01:46:42;99821.66;;;17.77;54.93
23953;BME280;12163;49.316;6.092;2022-07-05T01:49:13;99821.00;;;17.71;55.75
23953;BME280;12163;49.316;6.092;2022-07-05T01:51:48;99823.41;;;17.64;55.29
23953;BME280;12163;49.316;6.092;2022-07-05T01:54:18;99827.13;;;17.60;56.49
23953;BME280;12163;49.316;6.092;2022-07-05T01:56:45;99832.28;;;17.53;56.53
23953;BME280;12163;49.316;6.092;2022-07-05T01:59:12;99832.78;;;17.46;56.20
23953;BME280;12163;49.316;6.092;2022-07-05T02:01:39;99826.69;;;17.41;56.15
23953;BME280;12163;49.316;6.092;2022-07-05T02:04:08;99829.25;;;17.37;56.16
23953;BME280;12163;49.316;6.092;2022-07-05T02:06:35;99822.03;;;17.33;56.36
23953;BME280;12163;49.316;6.092;2022-07-05T02:09:04;99828.44;;;17.28;57.09
23953;BME280;12163;49.316;6.092;2022-07-05T02:11:32;99820.56;;;17.27;56.85
23953;BME280;12163;49.316;6.092;2022-07-05T02:13:58;99838.69;;;17.23;57.12
23953;BME280;12163;49.316;6.092;2022-07-05T02:16:26;99840.78;;;17.17;57.43
23953;BME280;12163;49.316;6.092;2022-07-05T02:18:53;99848.94;;;17.09;58.17
23953;BME280;12163;49.316;6.092;2022-07-05T02:21:20;99841.41;;;16.97;57.56
23953;BME280;12163;49.316;6.092;2022-07-05T02:23:46;99838.06;;;16.92;58.07
23953;BME280;12163;49.316;6.092;2022-07-05T02:26:13;99840.31;;;16.90;57.58
23953;BME280;12163;49.316;6.092;2022-07-05T02:28:40;99837.56;;;16.90;57.99
23953;BME280;12163;49.316;6.092;2022-07-05T02:31:07;99834.38;;;16.88;58.19
23953;BME280;12163;49.316;6.092;2022-07-05T02:33:33;99836.28;;;16.88;58.23
23953;BME280;12163;49.316;6.092;2022-07-05T02:38:34;99839.31;;;16.86;58.71
23953;BME280;12163;49.316;6.092;2022-07-05T02:41:04;99837.09;;;16.88;58.33
23953;BME280;12163;49.316;6.092;2022-07-05T02:43:32;99834.03;;;16.90;58.05
23953;BME280;12163;49.316;6.092;2022-07-05T02:46:03;99828.91;;;16.88;58.16
23953;BME280;12163;49.316;6.092;2022-07-05T02:48:30;99832.44;;;16.89;58.18
23953;BME280;12163;49.316;6.092;2022-07-05T02:50:57;99835.50;;;16.87;58.02
23953;BME280;12163;49.316;6.092;2022-07-05T02:53:24;99834.97;;;16.85;58.45
23953;BME280;12163;49.316;6.092;2022-07-05T02:55:51;99834.19;;;16.85;58.27
23953;BME280;12163;49.316;6.092;2022-07-05T02:58:18;99837.72;;;16.85;58.27
23953;BME280;12163;49.316;6.092;2022-07-05T03:00:45;99835.50;;;16.87;58.38
23953;BME280;12163;49.316;6.092;2022-07-05T03:03:14;99844.47;;;16.88;58.07
23953;BME280;12163;49.316;6.092;2022-07-05T03:05:41;99843.16;;;16.85;58.43
23953;BME280;12163;49.316;6.092;2022-07-05T03:08:08;99837.88;;;16.80;58.24
23953;BME280;12163;49.316;6.092;2022-07-05T03:10:34;99835.00;;;16.77;58.72
23953;BME280;12163;49.316;6.092;2022-07-05T03:13:02;99835.31;;;16.75;58.61
23953;BME280;12163;49.316;6.092;2022-07-05T03:15:29;99835.47;;;16.70;59.07
23953;BME280;12163;49.316;6.092;2022-07-05T03:17:55;99842.34;;;16.68;59.21
23953;BME280;12163;49.316;6.092;2022-07-05T03:20:22;99844.56;;;16.66;59.47
23953;BME280;12163;49.316;6.092;2022-07-05T03:22:49;99843.78;;;16.65;59.23
23953;BME280;12163;49.316;6.092;2022-07-05T03:25:15;99838.66;;;16.64;59.10
23953;BME280;12163;49.316;6.092;2022-07-05T03:27:42;99837.97;;;16.58;59.07
23953;BME280;12163;49.316;6.092;2022-07-05T03:30:09;99843.44;;;16.58;59.76
23953;BME280;12163;49.316;6.092;2022-07-05T03:32:36;99846.50;;;16.57;59.20
23953;BME280;12163;49.316;6.092;2022-07-05T03:35:03;99850.00;;;16.57;59.54
23953;BME280;12163;49.316;6.092;2022-07-05T03:37:29;99851.47;;;16.55;59.90
23953;BME280;12163;49.316;6.092;2022-07-05T03:39:56;99853.66;;;16.53;59.87
23953;BME280;12163;49.316;6.092;2022-07-05T03:42:23;99852.41;;;16.50;59.95
23953;BME280;12163;49.316;6.092;2022-07-05T03:44:49;99864.72;;;16.48;59.95
23953;BME280;12163;49.316;6.092;2022-07-05T03:47:16;99868.91;;;16.45;60.12
23953;BME280;12163;49.316;6.092;2022-07-05T03:49:43;99866.16;;;16.45;60.76
23953;BME280;12163;49.316;6.092;2022-07-05T03:52:10;99864.56;;;16.44;60.45
23953;BME280;12163;49.316;6.092;2022-07-05T03:54:36;99859.13;;;16.44;60.82
23953;BME280;12163;49.316;6.092;2022-07-05T03:57:03;99859.59;;;16.46;60.50
23953;BME280;12163;49.316;6.092;2022-07-05T03:59:30;99860.72;;;16.45;60.72
23953;BME280;12163;49.316;6.092;2022-07-05T04:01:57;99857.19;;;16.45;60.52
23953;BME280;12163;49.316;6.092;2022-07-05T04:04:23;99865.53;;;16.48;60.88
23953;BME280;12163;49.316;6.092;2022-07-05T04:06:50;99862.81;;;16.48;60.93
23953;BME280;12163;49.316;6.092;2022-07-05T04:09:16;99855.59;;;16.52;60.65
23953;BME280;12163;49.316;6.092;2022-07-05T04:11:43;99868.59;;;16.55;60.49
23953;BME280;12163;49.316;6.092;2022-07-05T04:14:10;99855.59;;;16.52;60.14
23953;BME280;12163;49.316;6.092;2022-07-05T04:16:37;99865.88;;;16.55;60.90
23953;BME280;12163;49.316;6.092;2022-07-05T04:19:04;99878.38;;;16.56;60.33
23953;BME280;12163;49.316;6.092;2022-07-05T04:21:31;99877.09;;;16.54;60.85
23953;BME280;12163;49.316;6.092;2022-07-05T04:23:57;99878.38;;;16.56;60.59
23953;BME280;12163;49.316;6.092;2022-07-05T04:26:25;99882.41;;;16.59;60.56
23953;BME280;12163;49.316;6.092;2022-07-05T04:28:51;99875.97;;;16.63;60.06
23953;BME280;12163;49.316;6.092;2022-07-05T04:31:23;99876.97;;;16.67;60.09
23953;BME280;12163;49.316;6.092;2022-07-05T04:33:49;99882.91;;;16.69;60.30
23953;BME280;12163;49.316;6.092;2022-07-05T04:36:17;99877.31;;;16.74;60.34
23953;BME280;12163;49.316;6.092;2022-07-05T04:38:43;99874.91;;;16.81;60.05
23953;BME280;12163;49.316;6.092;2022-07-05T04:41:10;99883.44;;;16.88;59.93
23953;BME280;12163;49.316;6.092;2022-07-05T04:43:37;99888.09;;;16.96;59.69
23953;BME280;12163;49.316;6.092;2022-07-05T04:46:03;99890.00;;;17.04;59.81
23953;BME280;12163;49.316;6.092;2022-07-05T04:48:30;99896.78;;;17.15;60.03
23953;BME280;12163;49.316;6.092;2022-07-05T04:50:57;99890.22;;;17.24;58.96
23953;BME280;12163;49.316;6.092;2022-07-05T04:53:24;99887.50;;;17.33;59.50
23953;BME280;12163;49.316;6.092;2022-07-05T04:55:51;99888.63;;;17.40;59.30
23953;BME280;12163;49.316;6.092;2022-07-05T04:58:18;99887.00;;;17.48;59.02
23953;BME280;12163;49.316;6.092;2022-07-05T05:00:45;99901.78;;;17.55;58.63
23953;BME280;12163;49.316;6.092;2022-07-05T05:03:11;99891.16;;;17.62;58.36
23953;BME280;12163;49.316;6.092;2022-07-05T05:05:38;99896.31;;;17.72;58.22
23953;BME280;12163;49.316;6.092;2022-07-05T05:08:05;99905.75;;;17.83;57.64
23953;BME280;12163;49.316;6.092;2022-07-05T05:10:31;99905.75;;;17.92;57.16
23953;BME280;12163;49.316;6.092;2022-07-05T05:12:58;99901.09;;;18.01;57.19
23953;BME280;12163;49.316;6.092;2022-07-05T05:15:24;99905.72;;;18.09;56.57
23953;BME280;12163;49.316;6.092;2022-07-05T05:17:51;99900.53;;;18.16;56.33
23953;BME280;12163;49.316;6.092;2022-07-05T05:20:18;99901.00;;;18.26;56.16
23953;BME280;12163;49.316;6.092;2022-07-05T05:22:46;99906.16;;;18.36;55.99
23953;BME280;12163;49.316;6.092;2022-07-05T05:25:13;99904.16;;;18.45;55.16
23953;BME280;12163;49.316;6.092;2022-07-05T05:27:47;99900.28;;;18.55;55.33
23953;BME280;12163;49.316;6.092;2022-07-05T05:30:16;99904.25;;;18.66;55.07
23953;BME280;12163;49.316;6.092;2022-07-05T05:32:43;99914.50;;;18.77;54.46
23953;BME280;12163;49.316;6.092;2022-07-05T05:35:10;99908.94;;;18.85;54.23
23953;BME280;12163;49.316;6.092;2022-07-05T05:37:48;99911.78;;;18.97;54.26
23953;BME280;12163;49.316;6.092;2022-07-05T05:40:15;99917.00;;;19.11;53.98
23953;BME280;12163;49.316;6.092;2022-07-05T05:42:42;99915.03;;;19.20;53.96
23953;BME280;12163;49.316;6.092;2022-07-05T05:45:09;99921.94;;;19.26;53.69
23953;BME280;12163;49.316;6.092;2022-07-05T05:47:50;99915.44;;;19.30;53.44
23953;BME280;12163;49.316;6.092;2022-07-05T05:50:30;99914.25;;;19.40;53.55
23953;BME280;12163;49.316;6.092;2022-07-05T05:52:58;99925.94;;;19.49;53.02
23953;BME280;12163;49.316;6.092;2022-07-05T05:55:26;99914.09;;;19.57;52.79
23953;BME280;12163;49.316;6.092;2022-07-05T05:57:53;99927.03;;;19.68;52.27
23953;BME280;12163;49.316;6.092;2022-07-05T06:00:21;99924.25;;;19.77;52.00
23953;BME280;12163;49.316;6.092;2022-07-05T06:02:49;99919.81;;;19.84;51.48
23953;BME280;12163;49.316;6.092;2022-07-05T06:05:17;99923.25;;;19.93;51.50
23953;BME280;12163;49.316;6.092;2022-07-05T06:07:49;99921.94;;;19.99;50.89
23953;BME280;12163;49.316;6.092;2022-07-05T06:10:37;99928.38;;;20.03;50.85
23953;BME280;12163;49.316;6.092;2022-07-05T06:13:09;99930.34;;;20.15;50.81
23953;BME280;12163;49.316;6.092;2022-07-05T06:15:35;99935.75;;;20.23;50.38
23953;BME280;12163;49.316;6.092;2022-07-05T06:18:02;99930.50;;;20.30;50.50
23953;BME280;12163;49.316;6.092;2022-07-05T06:20:31;99936.75;;;20.31;50.49
23953;BME280;12163;49.316;6.092;2022-07-05T06:23:00;99936.66;;;20.39;50.20
23953;BME280;12163;49.316;6.092;2022-07-05T06:25:26;99936.94;;;20.46;49.46
23953;BME280;12163;49.316;6.092;2022-07-05T06:27:58;99933.03;;;20.47;49.20
23953;BME280;12163;49.316;6.092;2022-07-05T06:30:27;99937.72;;;20.47;49.04
23953;BME280;12163;49.316;6.092;2022-07-05T06:32:54;99938.53;;;20.47;49.25
23953;BME280;12163;49.316;6.092;2022-07-05T06:35:22;99933.28;;;20.54;49.36
23953;BME280;12163;49.316;6.092;2022-07-05T06:38:00;99936.69;;;20.63;49.20
23953;BME280;12163;49.316;6.092;2022-07-05T06:40:31;99938.78;;;20.78;48.88
23953;BME280;12163;49.316;6.092;2022-07-05T06:43:00;99934.03;;;20.87;47.92
23953;BME280;12163;49.316;6.092;2022-07-05T06:45:28;99942.47;;;20.94;47.98
23953;BME280;12163;49.316;6.092;2022-07-05T06:48:03;99940.84;;;21.05;47.73
23953;BME280;12163;49.316;6.092;2022-07-05T06:50:32;99947.03;;;21.14;47.72
23953;BME280;12163;49.316;6.092;2022-07-05T06:52:59;99949.41;;;21.27;47.47
23953;BME280;12163;49.316;6.092;2022-07-05T06:55:25;99950.19;;;21.40;47.24
23953;BME280;12163;49.316;6.092;2022-07-05T06:58:00;99949.69;;;21.50;46.98
23953;BME280;12163;49.316;6.092;2022-07-05T07:00:43;99948.56;;;21.63;47.07
23953;BME280;12163;49.316;6.092;2022-07-05T07:03:30;99948.97;;;21.77;46.59
23953;BME280;12163;49.316;6.092;2022-07-05T07:06:17;99950.06;;;21.88;46.71
23953;BME280;12163;49.316;6.092;2022-07-05T07:08:44;99954.59;;;21.96;46.36
23953;BME280;12163;49.316;6.092;2022-07-05T07:11:29;99952.69;;;22.12;45.92
23953;BME280;12163;49.316;6.092;2022-07-05T07:13:56;99946.78;;;22.25;45.54
23953;BME280;12163;49.316;6.092;2022-07-05T07:16:22;99943.63;;;22.38;45.24
23953;BME280;12163;49.316;6.092;2022-07-05T07:18:49;99954.19;;;22.52;44.67
23953;BME280;12163;49.316;6.092;2022-07-05T07:21:36;99954.31;;;22.55;44.23
23953;BME280;12163;49.316;6.092;2022-07-05T07:24:03;99950.94;;;22.62;44.38
23953;BME280;12163;49.316;6.092;2022-07-05T07:26:30;99947.31;;;22.73;44.19
23953;BME280;12163;49.316;6.092;2022-07-05T07:29:16;99951.19;;;22.88;44.18
23953;BME280;12163;49.316;6.092;2022-07-05T07:31:43;99942.75;;;22.96;43.11
23953;BME280;12163;49.316;6.092;2022-07-05T07:34:10;99945.66;;;23.03;43.39
23953;BME280;12163;49.316;6.092;2022-07-05T07:36:36;99947.00;;;23.09;43.26
23953;BME280;12163;49.316;6.092;2022-07-05T07:39:03;99942.91;;;23.19;43.13
23953;BME280;12163;49.316;6.092;2022-07-05T07:41:30;99951.16;;;23.34;42.83
23953;BME280;12163;49.316;6.092;2022-07-05T07:43:56;99946.75;;;23.49;42.60
23953;BME280;12163;49.316;6.092;2022-07-05T07:46:25;99949.81;;;23.63;42.38
23953;BME280;12163;49.316;6.092;2022-07-05T07:48:54;99944.16;;;23.75;41.91
23953;BME280;12163;49.316;6.092;2022-07-05T07:51:21;99939.34;;;23.87;41.68
23953;BME280;12163;49.316;6.092;2022-07-05T07:53:48;99938.59;;;23.90;41.34
23953;BME280;12163;49.316;6.092;2022-07-05T07:56:14;99936.28;;;23.92;41.07
23953;BME280;12163;49.316;6.092;2022-07-05T07:58:41;99937.31;;;24.03;41.10
23953;BME280;12163;49.316;6.092;2022-07-05T08:01:08;99940.75;;;24.19;40.92
23953;BME280;12163;49.316;6.092;2022-07-05T08:03:38;99934.34;;;24.34;40.46
23953;BME280;12163;49.316;6.092;2022-07-05T08:06:05;99935.03;;;24.50;40.08
23953;BME280;12163;49.316;6.092;2022-07-05T08:08:34;99934.44;;;24.60;39.71
23953;BME280;12163;49.316;6.092;2022-07-05T08:11:01;99934.50;;;24.63;39.39
23953;BME280;12163;49.316;6.092;2022-07-05T08:13:27;99930.56;;;24.64;39.13
23953;BME280;12163;49.316;6.092;2022-07-05T08:15:54;99928.25;;;24.66;38.94
23953;BME280;12163;49.316;6.092;2022-07-05T08:18:21;99924.38;;;24.71;39.03
23953;BME280;12163;49.316;6.092;2022-07-05T08:21:06;99930.84;;;24.82;38.71
23953;BME280;12163;49.316;6.092;2022-07-05T08:23:51;99931.25;;;24.80;37.95
23953;BME280;12163;49.316;6.092;2022-07-05T08:26:18;99927.66;;;24.80;37.76
23953;BME280;12163;49.316;6.092;2022-07-05T08:28:44;99928.47;;;24.80;38.04
23953;BME280;12163;49.316;6.092;2022-07-05T08:31:34;99922.56;;;24.82;37.76
23953;BME280;12163;49.316;6.092;2022-07-05T08:34:01;99931.91;;;24.74;36.27
23953;BME280;12163;49.316;6.092;2022-07-05T08:36:28;99923.53;;;24.67;35.85
23953;BME280;12163;49.316;6.092;2022-07-05T08:38:54;99924.81;;;24.73;36.04
23953;BME280;12163;49.316;6.092;2022-07-05T08:41:22;99917.47;;;24.84;35.77
23953;BME280;12163;49.316;6.092;2022-07-05T08:43:50;99917.78;;;25.01;35.52
23953;BME280;12163;49.316;6.092;2022-07-05T08:46:18;99921.13;;;25.14;35.31
23953;BME280;12163;49.316;6.092;2022-07-05T08:48:50;99919.22;;;25.18;35.47
23953;BME280;12163;49.316;6.092;2022-07-05T08:51:19;99918.84;;;25.19;35.45
23953;BME280;12163;49.316;6.092;2022-07-05T08:53:51;99917.47;;;25.32;35.65
23953;BME280;12163;49.316;6.092;2022-07-05T08:56:19;99904.41;;;25.59;35.75
23953;BME280;12163;49.316;6.092;2022-07-05T08:59:06;99905.31;;;25.70;34.54
23953;BME280;12163;49.316;6.092;2022-07-05T09:01:33;99924.50;;;25.56;34.27
23953;BME280;12163;49.316;6.092;2022-07-05T09:04:04;99922.50;;;25.53;34.24
23953;BME280;12163;49.316;6.092;2022-07-05T09:06:32;99928.09;;;25.60;34.14
23953;BME280;12163;49.316;6.092;2022-07-05T09:09:01;99913.59;;;25.66;33.38
23953;BME280;12163;49.316;6.092;2022-07-05T09:11:35;99917.31;;;25.81;34.29
23953;BME280;12163;49.316;6.092;2022-07-05T09:14:04;99926.94;;;25.90;33.35
23953;BME280;12163;49.316;6.092;2022-07-05T09:16:52;99922.13;;;25.84;33.56
23953;BME280;12163;49.316;6.092;2022-07-05T09:19:18;99937.94;;;25.87;33.64
23953;BME280;12163;49.316;6.092;2022-07-05T09:21:45;99927.72;;;25.91;33.47
23953;BME280;12163;49.316;6.092;2022-07-05T09:24:12;99930.16;;;25.95;32.69
23953;BME280;12163;49.316;6.092;2022-07-05T09:26:45;99916.75;;;25.98;32.82
23953;BME280;12163;49.316;6.092;2022-07-05T09:29:19;99911.31;;;26.04;32.84
23953;BME280;12163;49.316;6.092;2022-07-05T09:32:06;99911.53;;;26.25;33.44
23953;BME280;12163;49.316;6.092;2022-07-05T09:34:32;99915.56;;;26.35;32.84
23953;BME280;12163;49.316;6.092;2022-07-05T09:37:02;99918.78;;;26.40;32.73
23953;BME280;12163;49.316;6.092;2022-07-05T09:42:21;99910.59;;;26.47;32.32
23953;BME280;12163;49.316;6.092;2022-07-05T09:44:53;99911.16;;;26.30;32.36
23953;BME280;12163;49.316;6.092;2022-07-05T09:47:22;99918.50;;;26.12;32.13
23953;BME280;12163;49.316;6.092;2022-07-05T09:49:53;99921.53;;;26.00;32.16
23953;BME280;12163;49.316;6.092;2022-07-05T09:52:38;99924.66;;;25.99;31.60
23953;BME280;12163;49.316;6.092;2022-07-05T09:55:12;99924.84;;;26.13;31.09
23953;BME280;12163;49.316;6.092;2022-07-05T09:57:40;99916.22;;;26.21;30.80
23953;BME280;12163;49.316;6.092;2022-07-05T10:00:12;99911.94;;;26.27;29.65
23953;BME280;12163;49.316;6.092;2022-07-05T10:05:24;99910.91;;;26.42;31.68
23953;BME280;12163;49.316;6.092;2022-07-05T10:07:56;99908.06;;;26.35;31.90
23953;BME280;12163;49.316;6.092;2022-07-05T10:10:24;99901.75;;;26.38;31.49
23953;BME280;12163;49.316;6.092;2022-07-05T10:12:53;99912.50;;;26.47;30.41
23953;BME280;12163;49.316;6.092;2022-07-05T10:15:24;99902.34;;;26.54;29.23
23953;BME280;12163;49.316;6.092;2022-07-05T10:17:54;99910.28;;;26.59;29.98
23953;BME280;12163;49.316;6.092;2022-07-05T10:21:05;99911.59;;;26.72;30.19
23953;BME280;12163;49.316;6.092;2022-07-05T10:23:15;99916.72;;;26.70;29.32
23953;BME280;12163;49.316;6.092;2022-07-05T10:25:48;99913.00;;;26.52;29.75
23953;BME280;12163;49.316;6.092;2022-07-05T10:28:16;99924.75;;;26.42;31.13
23953;BME280;12163;49.316;6.092;2022-07-05T10:30:47;99922.31;;;26.37;30.79
23953;BME280;12163;49.316;6.092;2022-07-05T10:33:20;99925.22;;;26.48;29.92
23953;BME280;12163;49.316;6.092;2022-07-05T10:35:53;99920.94;;;26.57;30.41
23953;BME280;12163;49.316;6.092;2022-07-05T10:38:20;99919.06;;;26.68;29.75
23953;BME280;12163;49.316;6.092;2022-07-05T10:40:52;99916.41;;;26.82;29.45
23953;BME280;12163;49.316;6.092;2022-07-05T10:43:21;99923.94;;;26.82;29.87
23953;BME280;12163;49.316;6.092;2022-07-05T10:45:50;99924.31;;;26.80;30.41
23953;BME280;12163;49.316;6.092;2022-07-05T10:48:27;99911.19;;;26.70;29.79
23953;BME280;12163;49.316;6.092;2022-07-05T10:58:39;99901.16;;;27.06;30.40
23953;BME280;12163;49.316;6.092;2022-07-05T11:06:24;99907.41;;;26.96;28.30
23953;BME280;12163;49.316;6.092;2022-07-05T11:11:28;99904.41;;;27.11;27.86
23953;BME280;12163;49.316;6.092;2022-07-05T11:13:56;99900.50;;;27.26;28.54
23953;BME280;12163;49.316;6.092;2022-07-05T11:16:27;99893.47;;;27.39;28.52
23953;BME280;12163;49.316;6.092;2022-07-05T11:19:17;99884.81;;;27.51;29.10
23953;BME280;12163;49.316;6.092;2022-07-05T11:22:05;99888.78;;;27.54;28.97
23953;BME280;12163;49.316;6.092;2022-07-05T11:24:33;99883.25;;;27.54;29.75
23953;BME280;12163;49.316;6.092;2022-07-05T11:27:02;99890.28;;;27.41;30.15
23953;BME280;12163;49.316;6.092;2022-07-05T11:29:56;99885.47;;;27.27;30.00
23953;BME280;12163;49.316;6.092;2022-07-05T11:32:35;99880.75;;;27.31;30.01
23953;BME280;12163;49.316;6.092;2022-07-05T11:35:16;99870.13;;;27.47;29.65
23953;BME280;12163;49.316;6.092;2022-07-05T11:38:05;99869.78;;;27.63;30.25
23953;BME280;12163;49.316;6.092;2022-07-05T11:40:52;99861.91;;;27.68;30.46
23953;BME280;12163;49.316;6.092;2022-07-05T11:43:29;99875.84;;;27.75;30.44
23953;BME280;12163;49.316;6.092;2022-07-05T11:45:59;99873.47;;;27.77;29.30
23953;BME280;12163;49.316;6.092;2022-07-05T11:48:27;99865.13;;;27.80;28.69
23953;BME280;12163;49.316;6.092;2022-07-05T11:50:54;99862.75;;;27.82;28.90
23953;BME280;12163;49.316;6.092;2022-07-05T11:53:26;99871.16;;;28.00;29.08
23953;BME280;12163;49.316;6.092;2022-07-05T11:56:13;99867.59;;;28.06;28.76
23953;BME280;12163;49.316;6.092;2022-07-05T11:58:40;99874.72;;;28.04;28.06
23953;BME280;12163;49.316;6.092;2022-07-05T12:01:06;99861.25;;;27.99;27.21
23953;BME280;12163;49.316;6.092;2022-07-05T12:03:33;99861.25;;;28.13;26.90
23953;BME280;12163;49.316;6.092;2022-07-05T12:06:11;99861.25;;;28.13;26.57
23953;BME280;12163;49.316;6.092;2022-07-05T12:08:38;99855.69;;;28.13;28.15
23953;BME280;12163;49.316;6.092;2022-07-05T12:11:05;99852.13;;;28.09;28.27
23953;BME280;12163;49.316;6.092;2022-07-05T12:14:00;99859.69;;;28.08;28.49
23953;BME280;12163;49.316;6.092;2022-07-05T12:16:29;99860.41;;;27.88;28.26
23953;BME280;12163;49.316;6.092;2022-07-05T12:18:56;99843.38;;;27.93;28.84
23953;BME280;12163;49.316;6.092;2022-07-05T12:21:26;99843.03;;;28.29;27.31
23953;BME280;12163;49.316;6.092;2022-07-05T12:23:53;99847.06;;;28.46;27.34
23953;BME280;12163;49.316;6.092;2022-07-05T12:26:20;99845.06;;;28.39;26.04
23953;BME280;12163;49.316;6.092;2022-07-05T12:28:48;99840.69;;;28.35;25.80
23953;BME280;12163;49.316;6.092;2022-07-05T12:33:42;99841.47;;;28.49;27.29
23953;BME280;12163;49.316;6.092;2022-07-05T12:36:17;99837.13;;;28.66;27.28
23953;BME280;12163;49.316;6.092;2022-07-05T12:38:44;99834.31;;;28.80;27.45
23953;BME280;12163;49.316;6.092;2022-07-05T12:41:11;99847.84;;;28.64;27.36
23953;BME280;12163;49.316;6.092;2022-07-05T12:43:52;99845.84;;;28.43;27.42
23953;BME280;12163;49.316;6.092;2022-07-05T12:46:20;99849.81;;;28.32;27.52
23953;BME280;12163;49.316;6.092;2022-07-05T12:48:52;99837.47;;;28.19;27.30
23953;BME280;12163;49.316;6.092;2022-07-05T12:51:37;99838.66;;;28.28;26.92
23953;BME280;12163;49.316;6.092;2022-07-05T12:54:17;99837.94;;;28.31;27.19
23953;BME280;12163;49.316;6.092;2022-07-05T12:57:03;99834.75;;;28.33;27.37
23953;BME280;12163;49.316;6.092;2022-07-05T13:00:06;99842.28;;;28.36;27.06
23953;BME280;12163;49.316;6.092;2022-07-05T13:02:34;99833.97;;;28.39;26.73
23953;BME280;12163;49.316;6.092;2022-07-05T13:05:02;99831.19;;;28.39;26.05
23953;BME280;12163;49.316;6.092;2022-07-05T13:07:29;99836.69;;;28.25;26.20
23953;BME280;12163;49.316;6.092;2022-07-05T13:10:18;99831.16;;;28.22;26.68
23953;BME280;12163;49.316;6.092;2022-07-05T13:12:46;99832.38;;;28.35;26.68
23953;BME280;12163;49.316;6.092;2022-07-05T13:15:14;99826.00;;;28.38;25.38
23953;BME280;12163;49.316;6.092;2022-07-05T13:17:41;99839.50;;;28.50;24.55
23953;BME280;12163;49.316;6.092;2022-07-05T13:20:09;99835.16;;;28.49;24.06
23953;BME280;12163;49.316;6.092;2022-07-05T13:22:36;99832.78;;;28.40;24.91
23953;BME280;12163;49.316;6.092;2022-07-05T13:25:03;99839.91;;;28.45;25.81
23953;BME280;12163;49.316;6.092;2022-07-05T13:27:30;99835.94;;;28.35;26.46
23953;BME280;12163;49.316;6.092;2022-07-05T13:29:57;99843.00;;;28.19;25.49
23953;BME280;12163;49.316;6.092;2022-07-05T13:32:23;99831.91;;;28.19;25.71
23953;BME280;12163;49.316;6.092;2022-07-05T13:34:50;99835.53;;;28.40;25.49
23953;BME280;12163;49.316;6.092;2022-07-05T13:37:17;99834.34;;;28.48;24.55
23953;BME280;12163;49.316;6.092;2022-07-05T13:39:44;99847.44;;;28.48;23.99